Time;durP1;ratioP1;P1;durP2;ratioP2;P2;SDS_P1;SDS_P2;PMS_P1;PMS_P2;Temp;Humidity;BMP_temperature;BMP_pressure;BME280_temperature;BME280_humidity;BME280_pressure;Samples;Min_cycle;Max_cycle;Signal;HPM_P1;HPM_P2
2023/02/28 00:00:10;;;;;;;14.77;6.37;;;;;;;1.01;100.00;147700.03;5009039;28;20129;-69
2023/02/28 00:02:40;;;;;;;13.33;6.10;;;;;;;0.95;100.00;147685.88;5003236;28;20032;-67
2023/02/28 00:05:07;;;;;;;12.17;6.70;;;;;;;0.92;100.00;147678.19;4999694;28;20038;-69
2023/02/28 00:07:33;;;;;;;12.10;6.40;;;;;;;0.93;100.00;147679.47;5005566;28;20100;-69
2023/02/28 00:09:59;;;;;;;13.70;6.83;;;;;;;0.88;100.00;147667.94;5002271;28;20156;-69
2023/02/28 00:12:24;;;;;;;13.10;6.40;;;;;;;0.86;100.00;147662.81;5010158;28;20036;-68
2023/02/28 00:14:50;;;;;;;13.17;6.57;;;;;;;0.84;100.00;147658.91;5012778;28;20075;-68
2023/02/28 00:17:17;;;;;;;13.27;6.80;;;;;;;0.85;100.00;147660.25;5008843;28;20554;-68
2023/02/28 00:19:43;;;;;;;13.27;6.93;;;;;;;0.79;100.00;147644.81;4996069;28;20026;-69
2023/02/28 00:22:09;;;;;;;11.93;7.00;;;;;;;0.78;100.00;147643.53;5011188;28;20179;-69
2023/02/28 00:24:34;;;;;;;18.60;7.07;;;;;;;0.82;100.00;147652.50;5010660;28;20028;-68
2023/02/28 00:26:59;;;;;;;14.43;7.03;;;;;;;0.88;100.00;147667.94;5011940;28;20046;-68
2023/02/28 00:29:25;;;;;;;12.10;6.83;;;;;;;0.87;100.00;147665.38;5003230;28;20104;-68
2023/02/28 00:31:50;;;;;;;14.87;6.47;;;;;;;0.84;100.00;147658.91;5008996;28;20026;-68
2023/02/28 00:34:15;;;;;;;13.73;6.07;;;;;;;0.84;100.00;147657.63;5012028;28;20041;-68
2023/02/28 00:36:45;;;;;;;12.13;6.67;;;;;;;0.91;100.00;147675.63;5013884;28;20026;-68
2023/02/28 00:39:10;;;;;;;14.73;6.97;;;;;;;0.95;100.00;147684.59;5010273;28;20026;-69
2023/02/28 00:41:36;;;;;;;14.40;7.23;;;;;;;0.99;100.00;147696.19;5013475;28;20037;-68
2023/02/28 00:44:01;;;;;;;13.80;7.20;;;;;;;1.02;100.00;147703.88;5012529;28;20072;-68
2023/02/28 00:46:27;;;;;;;12.90;7.33;;;;;;;1.07;100.00;147715.44;5008969;28;20030;-68
2023/02/28 00:48:52;;;;;;;14.97;7.10;;;;;;;1.03;100.00;147706.44;5009484;28;20167;-68
2023/02/28 00:51:17;;;;;;;13.43;7.10;;;;;;;1.02;100.00;147703.88;5002389;28;20026;-68
2023/02/28 00:53:43;;;;;;;11.93;7.23;;;;;;;1.03;100.00;147706.44;5011002;28;20022;-68
2023/02/28 00:56:08;;;;;;;12.10;6.63;;;;;;;1.03;100.00;147706.44;5012088;28;20636;-68
2023/02/28 00:58:33;;;;;;;13.13;6.93;;;;;;;1.01;100.00;147701.31;5010376;28;20022;-68
2023/02/28 01:00:59;;;;;;;12.67;7.40;;;;;;;1.00;100.00;147697.47;5005920;28;20434;-68
2023/02/28 01:03:25;;;;;;;14.30;7.20;;;;;;;0.95;100.00;147684.59;5013519;28;20030;-68
2023/02/28 01:05:52;;;;;;;13.23;7.20;;;;;;;0.95;100.00;147685.88;5008971;28;20045;-68
2023/02/28 01:08:18;;;;;;;16.13;7.70;;;;;;;0.96;100.00;147688.44;5000460;28;20030;-68
2023/02/28 01:10:44;;;;;;;16.80;7.77;;;;;;;0.97;100.00;147691.06;5004078;28;20247;-68
2023/02/28 01:13:10;;;;;;;13.00;7.27;;;;;;;0.94;100.00;147683.31;5008525;28;20474;-68
2023/02/28 01:15:35;;;;;;;16.27;7.00;;;;;;;0.96;100.00;147688.44;5008130;28;20026;-68
2023/02/28 01:18:01;;;;;;;14.03;7.53;;;;;;;0.95;100.00;147685.88;4998728;28;20044;-68
2023/02/28 01:20:26;;;;;;;16.80;7.73;;;;;;;0.88;100.00;147667.94;5007711;28;20025;-68
2023/02/28 01:22:51;;;;;;;14.93;8.50;;;;;;;0.76;100.00;147637.13;5006778;28;20389;-69
2023/02/28 01:25:17;;;;;;;15.70;8.03;;;;;;;0.70;100.00;147621.69;5012144;28;20088;-68
2023/02/28 01:27:42;;;;;;;14.33;7.97;;;;;;;0.63;100.00;147603.75;5012850;28;20045;-69
2023/02/28 01:30:09;;;;;;;15.63;8.07;;;;;;;0.57;100.00;147590.88;5011904;28;20315;-69
2023/02/28 01:32:35;;;;;;;12.87;7.43;;;;;;;0.53;100.00;147580.63;5013151;28;20044;-69
2023/02/28 01:35:01;;;;;;;15.80;8.50;;;;;;;0.50;100.00;147572.94;5013084;28;20377;-68
2023/02/28 01:37:27;;;;;;;15.27;8.20;;;;;;;0.37;100.00;147539.56;5013160;28;20029;-68
2023/02/28 01:39:52;;;;;;;14.77;9.03;;;;;;;0.31;100.00;147524.16;5005304;28;20417;-68
2023/02/28 01:42:17;;;;;;;22.77;9.80;;;;;;;0.19;100.00;147493.34;4999406;28;20083;-69
2023/02/28 01:45:06;;;;;;;18.30;9.10;;;;;;;0.09;100.00;147467.69;5012649;28;20710;-68
2023/02/28 01:47:36;;;;;;;17.37;8.77;;;;;;;0.04;100.00;147456.16;5002792;28;20022;-69
2023/02/28 01:50:09;;;;;;;18.13;8.80;;;;;;;0.06;100.00;147460.00;5012565;28;20072;-69
2023/02/28 01:52:35;;;;;;;21.80;9.90;;;;;;;0.01;100.00;147447.19;5013048;28;20540;-69
2023/02/28 01:55:04;;;;;;;19.27;9.33;;;;;;;-0.05;100.00;147434.31;5008946;28;20025;-69
2023/02/28 01:57:37;;;;;;;21.03;9.93;;;;;;;-0.02;100.00;147440.72;5008660;28;20471;-68
2023/02/28 02:02:57;;;;;;;18.63;9.63;;;;;;;0.13;100.00;147477.97;5056256;28;20566;-64
2023/02/28 02:05:25;;;;;;;18.60;9.90;;;;;;;0.16;100.00;147485.66;5049062;28;20045;-64
2023/02/28 02:08:17;;;;;;;20.37;10.40;;;;;;;0.14;100.00;147481.81;5053251;28;20033;-64
2023/02/28 02:10:47;;;;;;;17.88;9.18;;;;;;;0.09;100.00;147467.69;5049385;28;20102;-64
2023/02/28 02:13:22;;;;;;;16.03;9.07;;;;;;;0.05;100.00;147457.44;5063514;28;20063;-64
2023/02/28 02:16:09;;;;;;;18.80;9.57;;;;;;;-0.01;100.00;147444.56;5058753;28;20028;-64
2023/02/28 02:18:46;;;;;;;18.93;10.00;;;;;;;0.02;100.00;147449.75;5064721;28;20033;-63
2023/02/28 02:21:30;;;;;;;16.53;9.47;;;;;;;-0.01;100.00;147444.56;5058376;28;20056;-64
2023/02/28 02:24:47;;;;;;;19.07;10.00;;;;;;;0.01;100.00;147447.19;5053389;28;20392;-63
2023/02/28 02:27:24;;;;;;;21.97;10.17;;;;;;;0.09;100.00;147467.69;5065497;28;20036;-64
2023/02/28 02:30:14;;;;;;;24.40;11.07;;;;;;;0.13;100.00;147479.25;5062138;28;20031;-64
2023/02/28 02:33:03;;;;;;;21.77;10.83;;;;;;;0.24;100.00;147506.16;5056439;28;20588;-64
2023/02/28 02:35:52;;;;;;;17.70;10.00;;;;;;;0.26;100.00;147511.34;5068400;28;20048;-64
2023/02/28 02:38:51;;;;;;;20.10;10.20;;;;;;;0.30;100.00;147521.59;5067855;28;20100;-64
2023/02/28 02:41:22;;;;;;;19.23;10.50;;;;;;;0.25;100.00;147508.78;5068791;28;20012;-64
2023/02/28 02:43:47;;;;;;;20.90;10.93;;;;;;;0.22;100.00;147501.03;5059046;28;20474;-64
2023/02/28 02:46:53;;;;;;;21.27;9.93;;;;;;;0.07;100.00;147462.56;5059923;28;20028;-64
2023/02/28 02:49:36;;;;;;;20.10;9.43;;;;;;;-0.04;100.00;147436.91;5051459;28;20044;-62
2023/02/28 02:52:09;;;;;;;19.03;10.60;;;;;;;-0.23;100.00;147386.88;5062488;28;20044;-63
2023/02/28 02:54:41;;;;;;;22.13;10.43;;;;;;;-0.41;100.00;147341.97;5068473;28;20027;-63
2023/02/28 02:57:17;;;;;;;19.03;10.77;;;;;;;-0.56;100.00;147303.50;5067881;28;20021;-64
2023/02/28 02:59:43;;;;;;;26.57;12.40;;;;;;;-0.62;100.00;147290.66;5056382;28;20020;-64
2023/02/28 03:02:14;;;;;;;24.50;12.40;;;;;;;-0.75;100.00;147257.34;5051475;28;20075;-64
2023/02/28 03:04:46;;;;;;;24.23;12.82;;;;;;;-0.81;100.00;147241.97;5050079;28;20078;-63
2023/02/28 03:07:11;;;;;;;25.58;12.82;;;;;;;-0.78;100.00;147249.66;5048376;28;20396;-63
2023/02/28 03:09:37;;;;;;;23.97;13.30;;;;;;;-0.81;100.00;147241.97;5047965;28;20037;-64
2023/02/28 03:12:03;;;;;;;19.00;10.13;;;;;;;-0.64;100.00;147285.53;5041440;28;20036;-63
2023/02/28 03:14:50;;;;;;;19.80;8.77;;;;;;;-0.41;100.00;147343.25;5046475;28;20468;-63
2023/02/28 03:17:38;;;;;;;19.80;10.57;;;;;;;-0.53;100.00;147312.47;5050469;28;20033;-63
2023/02/28 03:20:13;;;;;;;20.37;10.63;;;;;;;-0.65;100.00;147281.69;5049292;28;20033;-63
2023/02/28 03:22:57;;;;;;;20.37;10.30;;;;;;;-0.49;100.00;147321.44;5032199;28;20032;-64
2023/02/28 03:25:31;;;;;;;21.43;10.43;;;;;;;-0.49;100.00;147321.44;5045667;28;20025;-64
2023/02/28 03:28:02;;;;;;;23.50;11.33;;;;;;;-0.46;100.00;147329.19;5041128;28;20469;-64
2023/02/28 03:30:36;;;;;;;20.35;11.95;;;;;;;-0.41;100.00;147341.97;5049422;28;20275;-64
2023/02/28 03:33:24;;;;;;;22.27;10.70;;;;;;;-0.32;100.00;147365.06;5050069;28;20107;-63
2023/02/28 03:35:59;;;;;;;18.17;10.93;;;;;;;-0.23;100.00;147386.88;5046632;28;20027;-63
2023/02/28 03:38:52;;;;;;;19.67;10.47;;;;;;;-0.16;100.00;147406.09;5043108;28;20029;-63
2023/02/28 03:41:30;;;;;;;17.23;9.33;;;;;;;-0.07;100.00;147429.19;5049831;28;20013;-64
2023/02/28 03:44:16;;;;;;;18.67;10.40;;;;;;;0.01;100.00;147447.19;5049453;28;20025;-63
2023/02/28 03:47:06;;;;;;;16.83;9.70;;;;;;;0.01;100.00;147447.19;5047592;28;20033;-64
2023/02/28 03:50:09;;;;;;;17.40;10.00;;;;;;;0.07;100.00;147462.56;5046467;28;20484;-64
2023/02/28 03:52:42;;;;;;;18.83;10.03;;;;;;;0.11;100.00;147472.81;5026476;28;20047;-63
2023/02/28 03:55:12;;;;;;;17.67;9.43;;;;;;;0.08;100.00;147465.13;5035362;28;20064;-64
2023/02/28 03:57:53;;;;;;;16.93;8.90;;;;;;;0.10;100.00;147471.53;5045545;28;20473;-64
2023/02/28 04:00:28;;;;;;;14.45;8.77;;;;;;;0.11;100.00;147472.81;5049605;28;20058;-63
2023/02/28 04:02:54;;;;;;;15.03;8.90;;;;;;;0.09;100.00;147467.69;5045742;28;20449;-64
2023/02/28 04:05:21;;;;;;;15.90;8.83;;;;;;;0.08;100.00;147465.13;5037743;28;20020;-64
2023/02/28 04:07:48;;;;;;;16.23;8.30;;;;;;;0.04;100.00;147454.88;5046501;28;20024;-63
2023/02/28 04:10:14;;;;;;;14.57;8.63;;;;;;;0.05;100.00;147457.44;5026280;28;20045;-63
2023/02/28 04:12:39;;;;;;;15.67;8.60;;;;;;;-0.04;100.00;147436.91;5047612;28;20430;-63
2023/02/28 04:15:06;;;;;;;16.47;8.33;;;;;;;-0.15;100.00;147408.66;5047007;28;20024;-64
2023/02/28 04:17:31;;;;;;;17.23;8.97;;;;;;;-0.26;100.00;147380.44;5031760;28;20051;-64
2023/02/28 04:19:57;;;;;;;16.97;9.93;;;;;;;-0.33;100.00;147363.78;5037071;28;20097;-65
2023/02/28 04:22:26;;;;;;;19.67;9.70;;;;;;;-0.33;100.00;147362.50;5031024;28;20032;-64
2023/02/28 04:24:53;;;;;;;17.50;9.20;;;;;;;-0.35;100.00;147358.66;5049369;28;20108;-63
2023/02/28 04:27:19;;;;;;;18.07;9.50;;;;;;;-0.23;100.00;147388.16;5039958;28;20456;-63
2023/02/28 04:29:44;;;;;;;14.33;9.10;;;;;;;-0.12;100.00;147416.41;5046440;28;20064;-64
2023/02/28 04:32:10;;;;;;;15.07;9.63;;;;;;;-0.10;100.00;147421.53;5038512;28;20025;-63
2023/02/28 04:34:36;;;;;;;19.43;9.40;;;;;;;-0.11;100.00;147418.97;5031639;28;20064;-63
2023/02/28 04:37:02;;;;;;;15.67;9.53;;;;;;;-0.15;100.00;147408.66;5044986;28;20045;-63
2023/02/28 04:39:29;;;;;;;21.13;9.67;;;;;;;-0.23;100.00;147388.16;5046215;28;20104;-63
2023/02/28 04:41:55;;;;;;;15.83;8.93;;;;;;;-0.29;100.00;147372.75;5040131;28;20033;-64
2023/02/28 04:44:21;;;;;;;18.37;8.67;;;;;;;-0.32;100.00;147366.34;5034138;28;20455;-63
2023/02/28 04:46:48;;;;;;;15.30;8.93;;;;;;;-0.30;100.00;147370.19;5036352;28;20025;-63
2023/02/28 04:49:13;;;;;;;16.83;9.37;;;;;;;-0.32;100.00;147365.06;5038414;28;20017;-64
2023/02/28 04:51:40;;;;;;;18.40;10.40;;;;;;;-0.36;100.00;147354.84;5047903;28;20016;-64
2023/02/28 04:54:05;;;;;;;18.73;9.30;;;;;;;-0.41;100.00;147341.97;5039575;28;20028;-64
2023/02/28 04:56:34;;;;;;;18.67;10.30;;;;;;;-0.43;100.00;147338.13;5051041;28;20452;-63
2023/02/28 04:58:59;;;;;;;22.00;9.47;;;;;;;-0.45;100.00;147331.72;5042077;28;20049;-64
2023/02/28 05:01:29;;;;;;;20.60;9.43;;;;;;;-0.63;100.00;147288.09;5050981;28;20029;-64
2023/02/28 05:03:56;;;;;;;17.23;9.80;;;;;;;-0.78;100.00;147248.38;5051745;28;20102;-64
2023/02/28 05:06:24;;;;;;;15.70;10.10;;;;;;;-0.89;100.00;147221.44;5048415;28;20022;-65
2023/02/28 05:08:51;;;;;;;22.57;10.80;;;;;;;-1.04;100.00;147183.00;5048691;28;20059;-64
2023/02/28 05:11:18;;;;;;;19.43;11.40;;;;;;;-1.20;100.00;147144.56;5052597;28;20013;-64
2023/02/28 05:13:43;;;;;;;23.53;11.80;;;;;;;-1.34;100.00;147107.38;5043299;28;20029;-64
2023/02/28 05:16:12;;;;;;;23.33;12.20;;;;;;;-1.53;100.00;147060.00;5047196;28;20033;-64
2023/02/28 05:18:38;;;;;;;24.10;12.70;;;;;;;-1.69;100.00;147019.00;5037034;28;20067;-63
2023/02/28 05:21:03;;;;;;;19.27;11.57;;;;;;;-1.66;100.00;147027.97;5039810;28;20025;-64
2023/02/28 05:23:29;;;;;;;26.57;12.73;;;;;;;-1.57;100.00;147051.03;5042773;28;20021;-63
2023/02/28 05:25:54;;;;;;;22.10;12.70;;;;;;;-1.60;100.00;147042.03;5051495;28;20076;-63
2023/02/28 05:28:20;;;;;;;24.50;13.27;;;;;;;-1.63;100.00;147035.66;5048572;28;20075;-63
2023/02/28 05:30:46;;;;;;;22.80;13.93;;;;;;;-1.67;100.00;147024.13;5031774;28;20029;-64
2023/02/28 05:33:12;;;;;;;24.07;13.93;;;;;;;-1.78;100.00;146998.50;5036906;28;20027;-63
2023/02/28 05:35:44;;;;;;;26.40;15.70;;;;;;;-1.85;100.00;146980.56;5034041;28;20787;-63
2023/02/28 05:38:10;;;;;;;26.17;16.87;;;;;;;-1.92;100.00;146962.66;5043588;28;20274;-63
2023/02/28 05:40:38;;;;;;;30.90;16.40;;;;;;;-2.06;100.00;146926.75;5053156;28;21198;-60
2023/02/28 05:43:04;;;;;;;35.70;19.97;;;;;;;-2.00;100.00;146942.16;5038597;28;20036;-61
2023/02/28 05:45:29;;;;;;;35.53;20.60;;;;;;;-1.87;100.00;146975.44;5038345;28;20276;-61
2023/02/28 05:47:55;;;;;;;40.67;21.93;;;;;;;-1.80;100.00;146992.13;5043770;28;20411;-61
2023/02/28 05:50:21;;;;;;;41.50;23.10;;;;;;;-1.69;100.00;147019.00;5046400;28;20491;-61
2023/02/28 05:52:52;;;;;;;40.17;23.70;;;;;;;-1.57;100.00;147049.75;5034611;28;20264;-61
2023/02/28 05:55:18;;;;;;;36.90;22.77;;;;;;;-1.39;100.00;147094.56;5043617;28;20491;-61
2023/02/28 05:57:43;;;;;;;29.37;16.57;;;;;;;-1.19;100.00;147145.84;5044116;28;20033;-61
2023/02/28 06:00:10;;;;;;;30.53;16.60;;;;;;;-1.06;100.00;147177.88;5040093;28;20037;-63
2023/02/28 06:02:35;;;;;;;30.40;17.73;;;;;;;-1.03;100.00;147185.56;5040504;28;20037;-61
2023/02/28 06:05:00;;;;;;;28.20;17.03;;;;;;;-0.98;100.00;147198.38;5036706;28;20271;-61
2023/02/28 06:07:26;;;;;;;26.63;17.13;;;;;;;-0.97;100.00;147200.91;5033591;28;20479;-62
2023/02/28 06:09:51;;;;;;;29.77;17.60;;;;;;;-1.01;100.00;147191.97;5045624;28;20061;-63
2023/02/28 06:12:17;;;;;;;29.57;18.03;;;;;;;-1.13;100.00;147161.22;5047865;28;20664;-63
2023/02/28 06:14:43;;;;;;;29.97;17.40;;;;;;;-1.14;100.00;147158.66;5049611;28;20025;-63
2023/02/28 06:17:09;;;;;;;26.40;16.10;;;;;;;-1.19;100.00;147147.13;5046383;28;20022;-62
2023/02/28 06:19:38;;;;;;;29.07;15.90;;;;;;;-1.23;100.00;147136.84;5033145;28;20393;-62
2023/02/28 06:22:04;;;;;;;24.57;15.87;;;;;;;-1.23;100.00;147136.84;5034732;28;20303;-62
2023/02/28 06:24:31;;;;;;;30.13;15.53;;;;;;;-1.24;100.00;147133.00;5051026;28;20607;-63
2023/02/28 06:26:58;;;;;;;24.97;15.40;;;;;;;-1.18;100.00;147148.41;5041362;28;20287;-61
2023/02/28 06:29:24;;;;;;;33.73;17.03;;;;;;;-1.09;100.00;147170.16;5049765;28;20315;-62
2023/02/28 06:31:49;;;;;;;24.90;15.47;;;;;;;-1.03;100.00;147185.56;5042193;28;20771;-63
2023/02/28 06:34:15;;;;;;;25.20;15.50;;;;;;;-0.94;100.00;147208.66;5046362;28;20025;-62
2023/02/28 06:36:41;;;;;;;28.57;15.33;;;;;;;-0.83;100.00;147236.84;5049796;28;20104;-63
2023/02/28 06:39:08;;;;;;;27.90;15.00;;;;;;;-0.71;100.00;147266.34;5033819;28;20017;-62
2023/02/28 06:41:37;;;;;;;22.67;13.83;;;;;;;-0.62;100.00;147289.38;5048254;28;20013;-62
2023/02/28 06:44:13;;;;;;;26.20;14.60;;;;;;;-0.55;100.00;147307.34;5046127;28;20032;-62
2023/02/28 06:46:40;;;;;;;21.83;13.83;;;;;;;-0.43;100.00;147336.84;5049275;28;20021;-62
2023/02/28 06:49:08;;;;;;;21.77;13.07;;;;;;;-0.32;100.00;147365.06;5043822;28;20026;-62
2023/02/28 06:51:34;;;;;;;22.67;12.70;;;;;;;-0.12;100.00;147416.41;5046185;28;21128;-62
2023/02/28 06:54:00;;;;;;;18.63;11.00;;;;;;;0.31;100.00;147522.88;5047709;28;20483;-62
2023/02/28 06:56:25;;;;;;;18.23;10.53;;;;;;;0.88;100.00;147667.94;5039375;28;20025;-62
2023/02/28 06:58:52;;;;;;;15.27;10.10;;;;;;;1.57;100.00;147842.59;5036028;28;20032;-62
2023/02/28 07:01:19;;;;;;;16.97;9.13;;;;;;;2.52;100.00;148081.69;5051966;28;20052;-62
2023/02/28 07:03:45;;;;;;;17.33;7.80;;;;;;;3.52;100.00;148335.19;5048987;28;20433;-62
2023/02/28 07:06:10;;;;;;;12.97;6.83;;;;;;;4.24;100.00;148516.69;5049416;28;20163;-63
2023/02/28 07:08:36;;;;;;;11.97;6.30;;;;;;;4.81;100.00;148661.00;5048492;28;20128;-62
2023/02/28 07:11:03;;;;;;;13.10;5.73;;;;;;;5.46;100.00;148826.03;5046578;28;20166;-63
2023/02/28 07:13:28;;;;;;;11.77;6.47;;;;;;;5.54;100.00;148847.94;5047826;28;20691;-62
2023/02/28 07:15:59;;;;;;;11.93;6.10;;;;;;;5.80;100.00;148913.69;5051030;28;20029;-63
2023/02/28 07:18:24;;;;;;;9.37;6.27;;;;;;;5.53;100.00;148844.06;5044567;28;20033;-63
2023/02/28 07:20:50;;;;;;;10.07;6.30;;;;;;;5.63;100.00;148869.88;5050097;28;20021;-61
2023/02/28 07:23:16;;;;;;;11.13;6.03;;;;;;;5.39;100.00;148809.25;5052457;28;20477;-62
2023/02/28 07:25:41;;;;;;;9.73;5.60;;;;;;;5.19;100.00;148758.97;5051801;28;20052;-62
2023/02/28 07:28:07;;;;;;;12.73;6.33;;;;;;;5.29;100.00;148784.75;5051967;28;20028;-61
2023/02/28 07:30:32;;;;;;;10.00;6.13;;;;;;;5.92;100.00;148942.13;5051705;28;20020;-62
2023/02/28 07:32:57;;;;;;;12.03;5.97;;;;;;;5.49;100.00;148833.78;5050978;28;20464;-61
2023/02/28 07:35:23;;;;;;;13.70;6.30;;;;;;;4.62;100.00;148614.66;5049958;28;20032;-62
2023/02/28 07:37:49;;;;;;;12.37;5.87;;;;;;;3.91;100.00;148433.03;5052272;28;20025;-62
2023/02/28 07:40:15;;;;;;;11.87;6.17;;;;;;;3.48;100.00;148326.16;5051720;28;20024;-62
2023/02/28 07:42:41;;;;;;;13.57;6.10;;;;;;;3.81;100.00;148408.53;5050358;28;20119;-62
2023/02/28 07:45:11;;;;;;;10.93;6.43;;;;;;;5.17;100.00;148753.81;5051586;28;20025;-61
2023/02/28 07:47:41;;;;;;;13.37;7.00;;;;;;;6.22;100.00;149018.28;5051970;28;20056;-61
2023/02/28 07:50:08;;;;;;;16.70;6.30;;;;;;;6.65;100.00;149127.94;5049372;28;20465;-62
2023/02/28 07:52:34;;;;;;;9.83;5.83;;;;;;;6.62;100.00;149120.22;5049438;28;20118;-62
2023/02/28 07:54:59;;;;;;;15.87;6.30;;;;;;;6.90;100.00;149191.19;5050053;28;20060;-62
2023/02/28 07:57:25;;;;;;;12.33;6.23;;;;;;;7.37;100.00;149311.31;5050842;28;20051;-62
2023/02/28 07:59:50;;;;;;;10.87;5.63;;;;;;;7.83;100.00;149428.88;5051057;28;20028;-62
2023/02/28 08:02:17;;;;;;;9.13;5.40;;;;;;;8.85;100.00;149686.22;5050409;28;20107;-62
2023/02/28 08:04:43;;;;;;;9.00;5.23;;;;;;;8.52;100.00;149603.44;5051087;28;20489;-62
2023/02/28 08:07:12;;;;;;;8.48;4.78;;;;;;;9.24;100.00;149787.09;5050172;28;20052;-62
2023/02/28 08:09:38;;;;;;;7.22;4.50;;;;;;;9.94;100.00;149964.41;5051531;28;20033;-61
2023/02/28 08:12:04;;;;;;;7.97;4.50;;;;;;;10.61;100.00;150134.06;5050870;28;20021;-61
2023/02/28 08:14:30;;;;;;;8.10;4.20;;;;;;;11.51;100.00;150364.75;5051014;28;20021;-62
2023/02/28 08:16:55;;;;;;;7.38;4.03;;;;;;;11.68;100.00;134797.19;5051393;28;20036;-62
2023/02/28 08:19:20;;;;;;;9.30;4.45;;;;;;;11.25;100.00;89985.16;5050441;28;20099;-62
2023/02/28 08:21:46;;;;;;;10.10;4.45;;;;;;;10.12;100.00;34579.16;5048650;28;20049;-62
2023/02/28 08:24:11;;;;;;;9.00;4.38;;;;;;;11.05;100.00;36609.13;5049712;28;20045;-61
2023/02/28 08:26:36;;;;;;;7.53;4.30;;;;;;;11.83;100.00;-12350.81;5050943;28;20035;-62
2023/02/28 08:29:02;;;;;;;8.40;4.20;;;;;;;11.95;100.00;-19477.88;5048690;28;20025;-62
2023/02/28 08:31:27;;;;;;;7.18;3.83;;;;;;;11.49;100.00;-19466.03;5052314;28;20107;-62
2023/02/28 08:33:55;;;;;;;9.45;4.03;;;;;;;11.91;100.00;-19476.94;5055136;28;20029;-61
2023/02/28 08:36:21;;;;;;;7.38;3.92;;;;;;;12.13;100.00;-19482.59;5053105;28;20035;-62
2023/02/28 08:38:46;;;;;;;7.90;3.97;;;;;;;11.53;100.00;-19467.09;5055146;28;20456;-61
2023/02/28 08:41:12;;;;;;;7.10;4.22;;;;;;;12.24;100.00;-19485.50;5055046;28;20392;-61
2023/02/28 08:43:39;;;;;;;7.00;4.05;;;;;;;11.61;100.00;-19469.19;5054533;28;20029;-61
2023/02/28 08:46:05;;;;;;;6.20;3.63;;;;;;;10.76;100.00;-19447.09;5054627;28;20507;-62
2023/02/28 08:48:33;;;;;;;6.50;3.10;;;;;;;10.10;100.00;-19430.13;5054964;28;20440;-62
2023/02/28 08:51:08;;;;;;;5.30;2.50;;;;;;;10.30;100.00;-19435.13;5052105;28;20040;-62
2023/02/28 08:53:35;;;;;;;5.47;2.70;;;;;;;10.41;98.16;-19438.16;5053679;28;20058;-61
2023/02/28 08:56:03;;;;;;;4.93;2.30;;;;;;;10.42;100.00;-19438.41;5054414;28;20358;-61
2023/02/28 08:58:29;;;;;;;5.07;2.40;;;;;;;11.55;95.68;-19467.47;5054284;28;20496;-61
2023/02/28 09:00:55;;;;;;;5.22;2.30;;;;;;;12.24;90.22;-19485.50;5053865;28;20025;-62
2023/02/28 09:03:21;;;;;;;4.03;2.08;;;;;;;10.70;75.91;-19445.53;5054436;28;20106;-62
2023/02/28 09:05:59;;;;;;;5.05;2.58;;;;;;;11.24;83.60;-19459.47;5052770;28;20480;-62
2023/02/28 09:08:26;;;;;;;4.95;2.20;;;;;;;9.19;85.61;-19406.41;5054196;28;20499;-61
2023/02/28 09:10:52;;;;;;;5.63;2.50;;;;;;;8.08;100.00;-19377.78;5054399;28;20017;-62
2023/02/28 09:13:18;;;;;;;3.77;1.70;;;;;;;6.75;97.84;-19343.31;5054231;28;20062;-62
2023/02/28 09:15:43;;;;;;;3.33;1.40;;;;;;;5.81;83.86;-19318.84;5053288;28;20033;-62
2023/02/28 09:18:09;;;;;;;2.50;1.20;;;;;;;5.36;88.07;-19306.94;5054539;28;20519;-62
2023/02/28 09:20:36;;;;;;;3.10;1.40;;;;;;;5.59;96.70;-19313.03;5052442;28;20029;-62
2023/02/28 09:23:02;;;;;;;5.10;1.43;;;;;;;5.31;82.95;-19305.75;5054073;28;20025;-63
2023/02/28 09:25:27;;;;;;;4.07;1.50;;;;;;;4.94;81.75;-19296.09;5054196;28;20028;-62
2023/02/28 09:27:52;;;;;;;4.30;1.70;;;;;;;5.11;91.38;-19300.47;5053771;28;20030;-62
2023/02/28 09:30:18;;;;;;;3.70;2.00;;;;;;;5.28;100.00;-19305.09;5054072;28;20536;-62
2023/02/28 09:32:51;;;;;;;3.90;1.90;;;;;;;5.35;100.00;-19306.69;5054322;28;20028;-62
2023/02/28 09:35:21;;;;;;;4.47;1.83;;;;;;;5.18;100.00;-19302.31;5051044;28;20523;-62
2023/02/28 09:37:47;;;;;;;3.13;1.60;;;;;;;5.03;97.16;-19298.34;5053974;28;20029;-62
2023/02/28 09:40:17;;;;;;;3.57;1.70;;;;;;;5.03;99.79;-19298.47;5050702;28;20033;-62
2023/02/28 09:42:45;;;;;;;4.57;1.70;;;;;;;4.88;97.19;-19294.63;5048269;28;20029;-62
2023/02/28 09:45:24;;;;;;;4.57;1.60;;;;;;;4.75;100.00;-19291.19;5053531;28;20029;-62
2023/02/28 09:47:52;;;;;;;4.97;1.67;;;;;;;4.85;100.00;-19293.84;5053965;28;20060;-62
2023/02/28 09:50:26;;;;;;;3.57;1.80;;;;;;;4.43;100.00;-19282.84;5050527;28;20021;-62
2023/02/28 09:52:54;;;;;;;7.70;1.97;;;;;;;4.47;100.00;-19283.91;5052745;28;20506;-62
2023/02/28 09:55:28;;;;;;;4.23;1.90;;;;;;;4.73;100.00;-19290.53;5052915;28;20071;-62
2023/02/28 09:57:56;;;;;;;4.07;1.70;;;;;;;4.87;100.00;-19294.25;5052750;28;20025;-62
2023/02/28 10:00:32;;;;;;;4.37;1.93;;;;;;;4.53;100.00;-19285.50;5051807;28;20036;-62
2023/02/28 10:03:00;;;;;;;4.50;1.80;;;;;;;4.69;100.00;-19289.75;5052455;28;20086;-62
2023/02/28 10:05:53;;;;;;;5.77;1.87;;;;;;;4.77;100.00;-19291.72;5051359;28;20047;-62
2023/02/28 10:08:35;;;;;;;4.20;2.00;;;;;;;4.95;100.00;-19296.34;5050963;28;20534;-62
2023/02/28 10:11:06;;;;;;;3.67;1.90;;;;;;;4.78;100.00;-19291.84;5052791;28;20025;-62
2023/02/28 10:13:50;;;;;;;2.85;1.40;;;;;;;4.99;100.00;-19297.41;5053228;28;20028;-62
2023/02/28 10:16:41;;;;;;;3.07;1.33;;;;;;;4.97;100.00;-19296.88;5052570;28;20037;-62
2023/02/28 10:19:13;;;;;;;3.13;1.40;;;;;;;4.85;100.00;-19293.84;5051458;28;20025;-62
2023/02/28 10:21:43;;;;;;;2.40;1.20;;;;;;;4.82;100.00;-19292.91;5050699;28;20021;-62
2023/02/28 10:24:34;;;;;;;3.50;1.20;;;;;;;4.97;100.00;-19296.88;5052990;28;20029;-62
2023/02/28 10:27:21;;;;;;;2.53;1.23;;;;;;;5.09;100.00;-19300.06;5052174;28;20025;-62
2023/02/28 10:29:52;;;;;;;3.17;1.40;;;;;;;5.15;100.00;-19301.66;5051901;28;20025;-62
2023/02/28 10:32:21;;;;;;;3.38;1.38;;;;;;;5.03;100.00;-19298.47;5052689;28;20020;-62
2023/02/28 10:34:53;;;;;;;3.23;1.30;;;;;;;5.00;100.00;-19297.69;5051225;28;20041;-62
2023/02/28 10:37:19;;;;;;;2.33;1.20;;;;;;;4.92;100.00;-19295.69;5048415;28;20037;-62
2023/02/28 10:39:46;;;;;;;2.73;1.43;;;;;;;4.89;100.00;-19294.78;5052453;28;20032;-62
2023/02/28 10:42:28;;;;;;;3.77;1.47;;;;;;;5.07;100.00;-19299.53;5052530;28;20028;-62
2023/02/28 10:45:16;;;;;;;2.57;1.30;;;;;;;5.14;100.00;-19301.38;5051334;28;20037;-62
2023/02/28 10:48:04;;;;;;;4.87;1.60;;;;;;;5.09;100.00;-19300.06;5035299;28;20041;-62
2023/02/28 10:50:49;;;;;;;2.77;1.30;;;;;;;5.16;100.00;-19301.91;5049341;28;20027;-61
2023/02/28 10:53:37;;;;;;;3.60;1.77;;;;;;;5.24;100.00;-19303.91;5050099;28;20476;-62
2023/02/28 10:56:16;;;;;;;3.63;1.50;;;;;;;5.30;100.00;-19305.63;5051444;28;20507;-62
2023/02/28 10:58:49;;;;;;;6.67;1.67;;;;;;;5.20;100.00;-19302.97;5051218;28;20119;-62
2023/02/28 11:01:36;;;;;;;3.33;1.37;;;;;;;5.08;100.00;-19299.66;5051211;28;20029;-62
2023/02/28 11:04:02;;;;;;;2.40;1.10;;;;;;;5.18;100.00;-19302.31;5033908;28;20041;-62
2023/02/28 11:06:34;;;;;;;2.87;1.40;;;;;;;5.28;100.00;-19305.09;5051877;28;20025;-63
2023/02/28 11:09:03;;;;;;;3.30;1.40;;;;;;;5.49;100.00;-19310.53;5049120;28;20029;-62
2023/02/28 11:11:40;;;;;;;3.30;1.40;;;;;;;5.28;100.00;-19304.97;5051235;28;20456;-62
2023/02/28 11:14:19;;;;;;;3.13;1.50;;;;;;;5.12;100.00;-19300.88;5049672;28;20049;-62
2023/02/28 11:16:44;;;;;;;3.83;1.50;;;;;;;5.13;100.00;-19301.13;5052074;28;20079;-62
2023/02/28 11:19:20;;;;;;;2.63;1.20;;;;;;;5.18;100.00;-19302.31;5050656;28;20481;-64
2023/02/28 11:21:54;;;;;;;3.80;1.50;;;;;;;5.25;100.00;-19304.16;5049178;28;20028;-63
2023/02/28 11:24:26;;;;;;;2.13;1.00;;;;;;;5.39;100.00;-19307.75;5036975;28;20067;-63
2023/02/28 11:26:51;;;;;;;3.85;1.70;;;;;;;5.18;100.00;-19302.44;5049531;28;20028;-63
2023/02/28 11:29:26;;;;;;;3.40;1.60;;;;;;;5.40;100.00;-19308.00;5051577;28;20435;-63